Time;durP1;ratioP1;P1;durP2;ratioP2;P2;SDS_P1;SDS_P2;PMS_P1;PMS_P2;Temp;Humidity;BMP_temperature;BMP_pressure;BME280_temperature;BME280_humidity;BME280_pressure;Samples;Min_cycle;Max_cycle;Signal;HPM_P1;HPM_P2
2022/04/24 00:00:04;;;;;;;48.28;23.05;;;;;;;;;;4990165;28;20086;-66
2022/04/24 00:02:30;;;;;;;42.60;22.15;;;;;;;;;;4990419;28;20101;-66
2022/04/24 00:04:57;;;;;;;43.88;22.00;;;;;;;;;;4990567;28;20049;-66
2022/04/24 00:07:23;;;;;;;60.15;24.40;;;;;;;;;;4985677;28;20030;-66
2022/04/24 00:09:49;;;;;;;51.08;22.50;;;;;;;;;;4990477;28;20601;-66
2022/04/24 00:12:16;;;;;;;48.78;22.45;;;;;;;;;;4990139;28;20488;-66
2022/04/24 00:14:43;;;;;;;52.08;24.10;;;;;;;;;;4990120;28;20030;-66
2022/04/24 00:17:09;;;;;;;45.20;22.35;;;;;;;;;;4977642;28;20030;-66
2022/04/24 00:19:36;;;;;;;47.65;23.98;;;;;;;;;;4987533;28;20423;-66
2022/04/24 00:22:02;;;;;;;48.63;22.35;;;;;;;;;;4990340;28;20115;-66
2022/04/24 00:24:28;;;;;;;48.13;23.42;;;;;;;;;;4990013;28;20030;-66
2022/04/24 00:26:55;;;;;;;49.03;24.05;;;;;;;;;;4980762;28;20096;-66
2022/04/24 00:29:21;;;;;;;44.05;23.45;;;;;;;;;;4969983;28;20096;-66
2022/04/24 00:31:47;;;;;;;54.15;26.30;;;;;;;;;;4981754;28;20033;-66
2022/04/24 00:34:13;;;;;;;46.28;23.55;;;;;;;;;;4989932;28;20049;-66
2022/04/24 00:36:40;;;;;;;49.97;24.80;;;;;;;;;;4988722;28;20030;-66
2022/04/24 00:39:06;;;;;;;52.92;26.27;;;;;;;;;;4989930;28;20491;-66
2022/04/24 00:41:32;;;;;;;44.80;24.95;;;;;;;;;;4990045;28;20026;-66
2022/04/24 00:43:58;;;;;;;55.92;25.33;;;;;;;;;;4989451;28;20030;-66
2022/04/24 00:46:36;;;;;;;50.78;25.88;;;;;;;;;;4983773;28;20080;-66
2022/04/24 00:49:03;;;;;;;54.00;26.90;;;;;;;;;;4970686;28;20092;-66
2022/04/24 00:51:29;;;;;;;54.08;25.70;;;;;;;;;;4988473;28;20071;-66
2022/04/24 00:53:56;;;;;;;62.50;27.38;;;;;;;;;;4989885;28;20080;-66
2022/04/24 00:56:30;;;;;;;52.38;27.30;;;;;;;;;;4985568;28;20086;-66
2022/04/24 00:58:56;;;;;;;59.88;26.52;;;;;;;;;;4970441;28;20043;-66
2022/04/24 01:01:22;;;;;;;53.10;27.33;;;;;;;;;;4977744;28;20027;-66
2022/04/24 01:03:48;;;;;;;63.05;26.65;;;;;;;;;;4969991;28;20393;-66
2022/04/24 01:06:15;;;;;;;51.55;26.98;;;;;;;;;;4980119;28;20062;-66
2022/04/24 01:08:41;;;;;;;48.38;26.90;;;;;;;;;;4970222;28;20034;-66
2022/04/24 01:11:07;;;;;;;56.38;27.58;;;;;;;;;;4973451;28;20135;-66
2022/04/24 01:13:33;;;;;;;52.13;25.75;;;;;;;;;;4988024;28;20065;-66
2022/04/24 01:15:59;;;;;;;48.67;25.67;;;;;;;;;;4989779;28;20029;-66
2022/04/24 01:18:26;;;;;;;62.42;26.20;;;;;;;;;;4989367;28;20038;-66
2022/04/24 01:20:53;;;;;;;57.05;26.90;;;;;;;;;;4989499;28;20041;-66
2022/04/24 01:23:19;;;;;;;53.38;26.45;;;;;;;;;;4974825;28;20026;-66
2022/04/24 01:25:45;;;;;;;49.38;27.50;;;;;;;;;;4969193;28;20515;-66
2022/04/24 01:28:11;;;;;;;55.55;27.60;;;;;;;;;;4970061;28;20027;-66
2022/04/24 01:30:37;;;;;;;58.45;27.98;;;;;;;;;;4969930;28;20385;-66
2022/04/24 01:33:04;;;;;;;56.83;28.15;;;;;;;;;;4969643;28;20031;-66
2022/04/24 01:35:31;;;;;;;65.00;29.10;;;;;;;;;;4969651;28;20027;-66
2022/04/24 01:37:58;;;;;;;60.45;29.67;;;;;;;;;;4970054;28;20436;-66
2022/04/24 01:40:25;;;;;;;59.40;28.52;;;;;;;;;;4968936;28;20026;-66
2022/04/24 01:42:51;;;;;;;56.35;27.23;;;;;;;;;;4969845;28;20031;-66
2022/04/24 01:45:17;;;;;;;50.80;28.25;;;;;;;;;;4970082;28;20030;-66
2022/04/24 01:47:43;;;;;;;55.47;27.70;;;;;;;;;;4969677;28;20042;-66
2022/04/24 01:50:09;;;;;;;61.88;29.13;;;;;;;;;;4969212;28;20486;-66
2022/04/24 01:52:35;;;;;;;53.90;28.75;;;;;;;;;;4969584;28;20039;-66
2022/04/24 01:55:01;;;;;;;63.92;29.85;;;;;;;;;;4969621;28;20038;-66
2022/04/24 01:57:28;;;;;;;65.63;28.73;;;;;;;;;;4972249;28;20052;-66
2022/04/24 01:59:54;;;;;;;67.90;30.85;;;;;;;;;;4972450;28;20042;-66
2022/04/24 02:02:20;;;;;;;64.93;29.42;;;;;;;;;;4991637;28;20083;-66
2022/04/24 02:04:46;;;;;;;66.90;30.38;;;;;;;;;;4992102;28;20041;-66
2022/04/24 02:07:12;;;;;;;72.95;30.48;;;;;;;;;;4973037;28;20031;-66
2022/04/24 02:09:40;;;;;;;63.05;32.38;;;;;;;;;;4990594;28;20036;-66
2022/04/24 02:12:06;;;;;;;61.40;29.67;;;;;;;;;;4992321;28;20046;-66
2022/04/24 02:14:32;;;;;;;67.47;29.85;;;;;;;;;;4991860;28;20374;-66
2022/04/24 02:16:58;;;;;;;62.63;29.90;;;;;;;;;;4989984;28;20637;-66
2022/04/24 02:19:25;;;;;;;75.40;31.88;;;;;;;;;;4989949;28;20098;-66
2022/04/24 02:21:51;;;;;;;68.00;32.13;;;;;;;;;;4988342;28;20034;-66
2022/04/24 02:24:17;;;;;;;62.38;29.48;;;;;;;;;;4990677;28;20030;-66
2022/04/24 02:26:43;;;;;;;68.57;31.17;;;;;;;;;;4991085;28;20022;-66
2022/04/24 02:29:09;;;;;;;70.38;31.80;;;;;;;;;;4992186;28;20036;-66
2022/04/24 02:31:35;;;;;;;67.38;31.75;;;;;;;;;;4991641;28;20084;-66
2022/04/24 02:34:01;;;;;;;66.63;31.77;;;;;;;;;;4989480;28;20011;-66
2022/04/24 02:36:28;;;;;;;79.28;34.40;;;;;;;;;;4991290;28;20038;-66
2022/04/24 02:38:54;;;;;;;72.50;32.45;;;;;;;;;;4982186;28;20083;-66
2022/04/24 02:41:20;;;;;;;64.43;31.65;;;;;;;;;;4991840;28;20037;-66
2022/04/24 02:43:46;;;;;;;64.20;31.70;;;;;;;;;;4973086;28;20023;-66
2022/04/24 02:46:12;;;;;;;78.80;32.08;;;;;;;;;;4972380;28;20519;-66
2022/04/24 02:48:38;;;;;;;75.30;32.67;;;;;;;;;;4971997;28;20160;-66
2022/04/24 02:51:04;;;;;;;70.22;32.10;;;;;;;;;;4972413;28;20019;-66
2022/04/24 02:53:30;;;;;;;75.65;31.45;;;;;;;;;;4971148;28;20054;-66
2022/04/24 02:55:57;;;;;;;75.07;32.97;;;;;;;;;;4971355;28;20117;-66
2022/04/24 02:58:23;;;;;;;74.18;32.75;;;;;;;;;;4971271;28;20133;-66
2022/04/24 03:00:50;;;;;;;65.43;33.13;;;;;;;;;;4971796;28;20041;-66
2022/04/24 03:03:19;;;;;;;60.25;32.40;;;;;;;;;;4971970;28;20114;-66
2022/04/24 03:05:45;;;;;;;79.60;33.95;;;;;;;;;;4975815;28;20026;-66
2022/04/24 03:08:12;;;;;;;72.13;31.90;;;;;;;;;;4979957;28;20027;-66
2022/04/24 03:10:38;;;;;;;70.75;34.10;;;;;;;;;;4971664;28;20107;-66
2022/04/24 03:13:04;;;;;;;72.50;32.83;;;;;;;;;;4971969;28;20096;-66
2022/04/24 03:15:30;;;;;;;68.22;32.13;;;;;;;;;;4971229;28;20033;-66
2022/04/24 03:17:56;;;;;;;75.65;32.33;;;;;;;;;;4971646;28;20069;-66
2022/04/24 03:20:23;;;;;;;79.28;33.42;;;;;;;;;;4975077;28;20035;-66
2022/04/24 03:22:50;;;;;;;89.28;34.72;;;;;;;;;;4971016;28;20037;-66
2022/04/24 03:25:16;;;;;;;82.22;34.85;;;;;;;;;;5053486;28;20437;-66
2022/04/24 03:27:42;;;;;;;96.75;33.70;;;;;;;;;;5062456;28;20033;-66
2022/04/24 03:30:09;;;;;;;79.30;33.15;;;;;;;;;;4982781;28;20031;-66
2022/04/24 03:32:35;;;;;;;90.85;33.80;;;;;;;;;;4982302;28;20029;-66
2022/04/24 03:35:03;;;;;;;79.00;32.92;;;;;;;;;;4979396;28;20069;-66
2022/04/24 03:37:29;;;;;;;75.80;35.35;;;;;;;;;;4983525;28;20480;-66
2022/04/24 03:39:56;;;;;;;81.32;34.47;;;;;;;;;;4977603;28;20099;-66
2022/04/24 03:42:22;;;;;;;71.75;33.70;;;;;;;;;;4984077;28;20098;-66
2022/04/24 03:44:49;;;;;;;75.70;33.17;;;;;;;;;;4971808;28;20042;-65
2022/04/24 03:47:15;;;;;;;84.43;36.80;;;;;;;;;;4978789;28;20085;-65
2022/04/24 03:49:41;;;;;;;84.65;34.58;;;;;;;;;;4978121;28;20022;-65
2022/04/24 03:52:08;;;;;;;85.82;34.10;;;;;;;;;;4982494;28;20399;-65
2022/04/24 03:54:34;;;;;;;75.85;35.08;;;;;;;;;;4987621;28;20026;-65
2022/04/24 03:57:00;;;;;;;70.22;32.38;;;;;;;;;;4983445;28;20042;-65
2022/04/24 03:59:27;;;;;;;86.68;32.35;;;;;;;;;;4971419;28;20039;-65
2022/04/24 04:01:53;;;;;;;85.57;35.35;;;;;;;;;;4979295;28;20037;-65
2022/04/24 04:04:19;;;;;;;74.57;33.67;;;;;;;;;;4980903;28;20087;-65
2022/04/24 04:06:45;;;;;;;76.47;32.03;;;;;;;;;;4970821;28;20089;-66
2022/04/24 04:09:11;;;;;;;63.97;31.75;;;;;;;;;;4971240;28;20031;-66
2022/04/24 04:11:37;;;;;;;69.00;29.50;;;;;;;;;;4986816;28;20097;-66
2022/04/24 04:14:04;;;;;;;78.50;31.50;;;;;;;;;;4990454;28;20467;-66
2022/04/24 04:16:30;;;;;;;69.60;29.55;;;;;;;;;;4990338;28;20063;-66
2022/04/24 04:18:56;;;;;;;66.88;31.23;;;;;;;;;;4988951;28;20038;-66
2022/04/24 04:21:22;;;;;;;76.63;31.83;;;;;;;;;;4982225;28;20463;-66
2022/04/24 04:23:48;;;;;;;70.63;31.40;;;;;;;;;;4970798;28;20133;-66
2022/04/24 04:26:17;;;;;;;73.97;30.88;;;;;;;;;;4969061;28;20027;-66
2022/04/24 04:28:44;;;;;;;81.75;31.17;;;;;;;;;;4968617;28;20031;-66
2022/04/24 04:31:11;;;;;;;77.07;31.73;;;;;;;;;;4970654;28;20111;-66
2022/04/24 04:33:37;;;;;;;87.45;30.25;;;;;;;;;;4970336;28;20031;-66
2022/04/24 04:36:03;;;;;;;76.18;29.60;;;;;;;;;;4970112;28;20027;-66
2022/04/24 04:38:29;;;;;;;69.78;31.23;;;;;;;;;;4970798;28;20023;-66
2022/04/24 04:40:55;;;;;;;70.47;30.13;;;;;;;;;;4970409;28;20080;-66
2022/04/24 04:43:21;;;;;;;76.13;31.38;;;;;;;;;;4970940;28;20328;-66
2022/04/24 04:45:49;;;;;;;76.75;29.85;;;;;;;;;;4970394;28;20560;-66
2022/04/24 04:48:15;;;;;;;72.55;29.85;;;;;;;;;;4970547;28;20055;-66
2022/04/24 04:50:41;;;;;;;74.75;31.40;;;;;;;;;;4970060;28;20031;-66
2022/04/24 04:53:07;;;;;;;86.13;30.88;;;;;;;;;;4981295;28;20026;-66
2022/04/24 04:55:33;;;;;;;78.55;31.65;;;;;;;;;;4989548;28;20034;-66
2022/04/24 04:58:00;;;;;;;82.75;30.25;;;;;;;;;;4984940;28;20411;-66
2022/04/24 05:00:26;;;;;;;81.32;30.55;;;;;;;;;;4979507;28;20019;-65
2022/04/24 05:02:53;;;;;;;73.35;29.25;;;;;;;;;;4979859;28;20399;-65
2022/04/24 05:05:19;;;;;;;76.55;29.98;;;;;;;;;;4978374;28;20019;-65
2022/04/24 05:07:46;;;;;;;89.22;30.25;;;;;;;;;;4978643;28;20066;-65
2022/04/24 05:10:12;;;;;;;83.70;30.05;;;;;;;;;;4977736;28;20097;-65
2022/04/24 05:12:38;;;;;;;77.50;31.35;;;;;;;;;;4978402;28;20035;-65
2022/04/24 05:15:05;;;;;;;81.15;32.20;;;;;;;;;;4980170;28;20026;-65
2022/04/24 05:17:31;;;;;;;76.35;30.48;;;;;;;;;;4979152;28;20088;-65
2022/04/24 05:19:57;;;;;;;92.22;32.28;;;;;;;;;;4978051;28;20400;-65
2022/04/24 05:22:24;;;;;;;85.97;31.98;;;;;;;;;;4980668;28;20080;-65
2022/04/24 05:24:50;;;;;;;82.97;29.90;;;;;;;;;;4986442;28;20083;-65
2022/04/24 05:27:16;;;;;;;82.45;31.05;;;;;;;;;;4985930;28;20453;-65
2022/04/24 05:29:42;;;;;;;70.70;29.02;;;;;;;;;;4986441;28;20034;-65
2022/04/24 05:32:10;;;;;;;61.90;27.90;;;;;;;;;;4989220;28;20025;-65
2022/04/24 05:34:36;;;;;;;76.88;31.23;;;;;;;;;;4989478;28;20011;-65
2022/04/24 05:37:03;;;;;;;77.90;29.83;;;;;;;;;;4990084;28;20058;-65
2022/04/24 05:39:29;;;;;;;70.97;30.15;;;;;;;;;;4988021;28;20038;-65
2022/04/24 05:41:55;;;;;;;80.72;31.00;;;;;;;;;;4990479;28;20550;-65
2022/04/24 05:44:21;;;;;;;87.13;30.63;;;;;;;;;;4983664;28;20064;-65
2022/04/24 05:46:47;;;;;;;79.45;30.45;;;;;;;;;;4990465;28;20099;-65
2022/04/24 05:49:14;;;;;;;80.57;30.33;;;;;;;;;;4990293;28;20019;-65
2022/04/24 05:51:40;;;;;;;75.55;30.67;;;;;;;;;;4990485;28;20052;-65
2022/04/24 05:54:06;;;;;;;69.35;30.52;;;;;;;;;;4988352;28;20480;-65
2022/04/24 05:56:32;;;;;;;77.78;30.75;;;;;;;;;;4989989;28;20034;-65
2022/04/24 05:58:58;;;;;;;79.05;28.63;;;;;;;;;;4986820;28;20034;-65
2022/04/24 06:01:25;;;;;;;81.20;31.30;;;;;;;;;;4989912;28;20053;-65
2022/04/24 06:03:51;;;;;;;84.63;31.23;;;;;;;;;;4989389;28;20027;-65
2022/04/24 06:06:17;;;;;;;73.70;29.65;;;;;;;;;;4988527;28;20034;-65
2022/04/24 06:08:43;;;;;;;84.82;29.85;;;;;;;;;;4988482;28;20437;-65
2022/04/24 06:11:10;;;;;;;79.30;30.50;;;;;;;;;;4989734;28;20026;-65
2022/04/24 06:13:36;;;;;;;87.00;30.02;;;;;;;;;;4988041;28;20561;-65
2022/04/24 06:16:02;;;;;;;77.45;29.30;;;;;;;;;;4988743;28;20030;-65
2022/04/24 06:18:28;;;;;;;78.47;29.05;;;;;;;;;;4990741;28;20026;-65
2022/04/24 06:20:55;;;;;;;78.28;29.98;;;;;;;;;;4996111;28;20484;-65
2022/04/24 06:23:21;;;;;;;74.28;29.25;;;;;;;;;;4982305;28;20026;-65
2022/04/24 06:25:47;;;;;;;68.38;29.13;;;;;;;;;;4990564;28;20446;-65
2022/04/24 06:28:13;;;;;;;68.78;28.92;;;;;;;;;;4984387;28;20122;-65
2022/04/24 06:30:42;;;;;;;71.35;28.42;;;;;;;;;;4988514;28;20029;-65
2022/04/24 06:33:09;;;;;;;64.07;27.48;;;;;;;;;;4988315;28;20033;-65
2022/04/24 06:35:35;;;;;;;67.65;29.90;;;;;;;;;;4977964;28;20027;-66
2022/04/24 06:38:01;;;;;;;63.17;27.70;;;;;;;;;;4983709;28;20034;-66
2022/04/24 06:40:27;;;;;;;74.20;28.63;;;;;;;;;;4985443;28;20434;-66
2022/04/24 06:42:56;;;;;;;68.43;28.00;;;;;;;;;;4985542;28;20472;-66
2022/04/24 06:45:28;;;;;;;72.28;27.83;;;;;;;;;;4970559;28;20031;-66
2022/04/24 06:47:58;;;;;;;70.80;28.33;;;;;;;;;;4979095;28;20037;-66
2022/04/24 06:50:25;;;;;;;62.78;28.15;;;;;;;;;;4982392;28;20553;-66
2022/04/24 06:53:11;;;;;;;66.65;27.00;;;;;;;;;;4980098;28;20081;-66
2022/04/24 06:55:38;;;;;;;63.40;25.98;;;;;;;;;;4981522;28;20076;-66
2022/04/24 06:58:05;;;;;;;67.22;26.73;;;;;;;;;;4979882;28;20054;-66
2022/04/24 07:00:33;;;;;;;62.72;25.42;;;;;;;;;;4978904;28;20031;-66
2022/04/24 07:03:00;;;;;;;59.30;25.52;;;;;;;;;;4979571;28;20046;-66
2022/04/24 07:05:27;;;;;;;58.08;23.67;;;;;;;;;;4981715;28;20031;-66
2022/04/24 07:07:54;;;;;;;47.22;21.65;;;;;;;;;;4981840;28;20054;-66
2022/04/24 07:10:20;;;;;;;41.80;20.58;;;;;;;;;;4978318;28;20155;-65
2022/04/24 07:12:47;;;;;;;43.90;20.25;;;;;;;;;;4985053;28;20041;-66
2022/04/24 07:15:14;;;;;;;44.95;20.88;;;;;;;;;;4993836;28;20499;-66
2022/04/24 07:17:41;;;;;;;48.00;20.00;;;;;;;;;;4978725;28;20026;-65
2022/04/24 07:20:08;;;;;;;41.05;19.15;;;;;;;;;;4977711;28;20602;-65
2022/04/24 07:22:42;;;;;;;43.53;18.83;;;;;;;;;;4977456;28;20037;-65
2022/04/24 07:25:09;;;;;;;40.47;18.33;;;;;;;;;;4979802;28;20072;-65
2022/04/24 07:27:35;;;;;;;41.65;20.27;;;;;;;;;;4978661;28;20125;-64
2022/04/24 07:30:01;;;;;;;38.53;19.58;;;;;;;;;;4972666;28;20088;-64
2022/04/24 07:32:27;;;;;;;46.60;21.02;;;;;;;;;;4982965;28;20511;-65
2022/04/24 07:34:53;;;;;;;50.80;20.55;;;;;;;;;;4980024;28;20033;-65
2022/04/24 07:37:19;;;;;;;44.60;19.77;;;;;;;;;;4979828;28;20482;-64
2022/04/24 07:39:45;;;;;;;46.83;20.33;;;;;;;;;;4971135;28;20105;-64
2022/04/24 07:42:11;;;;;;;47.50;21.52;;;;;;;;;;4971126;28;20518;-65
2022/04/24 07:44:38;;;;;;;48.25;21.92;;;;;;;;;;4974628;28;20077;-66
2022/04/24 07:47:04;;;;;;;45.22;21.95;;;;;;;;;;4973533;28;20030;-66
2022/04/24 07:49:30;;;;;;;50.28;23.48;;;;;;;;;;4970860;28;20050;-66
2022/04/24 07:51:56;;;;;;;57.20;22.60;;;;;;;;;;4974781;28;20547;-66
2022/04/24 07:54:22;;;;;;;57.42;23.30;;;;;;;;;;4971998;28;20026;-66
2022/04/24 07:56:48;;;;;;;58.55;23.48;;;;;;;;;;4969584;28;20059;-66
2022/04/24 07:59:15;;;;;;;63.00;24.42;;;;;;;;;;4969081;28;20487;-66
2022/04/24 08:01:41;;;;;;;75.57;27.02;;;;;;;;;;4968825;28;20038;-66
2022/04/24 08:04:07;;;;;;;71.78;26.65;;;;;;;;;;4968802;28;20037;-66
2022/04/24 08:06:33;;;;;;;68.13;24.77;;;;;;;;;;4968576;28;20035;-66
2022/04/24 08:08:59;;;;;;;79.75;29.17;;;;;;;;;;4968725;28;20029;-66
2022/04/24 08:11:25;;;;;;;69.38;25.02;;;;;;;;;;4968290;28;20026;-66
2022/04/24 08:13:52;;;;;;;64.20;23.42;;;;;;;;;;4971643;28;20026;-66
2022/04/24 08:16:18;;;;;;;60.83;23.60;;;;;;;;;;4968625;28;20023;-66
2022/04/24 08:18:44;;;;;;;50.08;24.58;;;;;;;;;;4971039;28;20034;-66
2022/04/24 08:21:10;;;;;;;61.63;23.92;;;;;;;;;;4971539;28;20400;-66
2022/04/24 08:23:36;;;;;;;72.25;25.95;;;;;;;;;;4968587;28;20030;-66
2022/04/24 08:26:02;;;;;;;60.75;23.05;;;;;;;;;;4978443;28;20088;-66
2022/04/24 08:28:28;;;;;;;65.47;25.27;;;;;;;;;;4984027;28;20079;-66
2022/04/24 08:30:54;;;;;;;58.78;21.85;;;;;;;;;;4988880;28;20390;-66
2022/04/24 08:33:21;;;;;;;62.55;23.00;;;;;;;;;;5006419;28;20117;-66
2022/04/24 08:35:48;;;;;;;68.82;23.42;;;;;;;;;;4981344;28;20022;-66
2022/04/24 08:38:14;;;;;;;71.47;24.65;;;;;;;;;;5019465;28;20088;-66
2022/04/24 08:40:41;;;;;;;68.82;25.40;;;;;;;;;;4972356;28;20434;-66
2022/04/24 08:43:07;;;;;;;85.60;27.48;;;;;;;;;;5003226;28;20030;-66
2022/04/24 08:45:34;;;;;;;62.85;24.33;;;;;;;;;;4977123;28;20022;-66
2022/04/24 08:48:02;;;;;;;57.45;23.20;;;;;;;;;;4977561;28;20030;-66
2022/04/24 08:50:32;;;;;;;59.35;24.67;;;;;;;;;;4973925;28;20455;-66
2022/04/24 08:52:59;;;;;;;63.75;25.08;;;;;;;;;;4980540;28;20045;-66
2022/04/24 08:55:29;;;;;;;70.90;24.20;;;;;;;;;;4975798;28;20076;-66
2022/04/24 08:57:56;;;;;;;71.60;24.80;;;;;;;;;;4988226;28;20038;-66
2022/04/24 09:00:23;;;;;;;63.10;23.63;;;;;;;;;;4975145;28;20026;-66
2022/04/24 09:02:50;;;;;;;66.10;23.83;;;;;;;;;;4979326;28;20080;-66
2022/04/24 09:05:16;;;;;;;61.97;24.27;;;;;;;;;;4976631;28;20492;-66
2022/04/24 09:07:45;;;;;;;70.05;25.25;;;;;;;;;;4972846;28;20077;-66
2022/04/24 09:10:12;;;;;;;62.10;25.15;;;;;;;;;;4971834;28;20022;-66
2022/04/24 09:12:39;;;;;;;80.78;26.33;;;;;;;;;;4972058;28;20031;-66
2022/04/24 09:15:06;;;;;;;73.90;26.38;;;;;;;;;;4982365;28;20128;-66
2022/04/24 09:17:33;;;;;;;71.10;26.23;;;;;;;;;;4972684;28;20041;-66
2022/04/24 09:19:59;;;;;;;82.93;25.48;;;;;;;;;;4990875;28;20387;-66
2022/04/24 09:22:26;;;;;;;81.65;25.63;;;;;;;;;;4979781;28;20026;-66
2022/04/24 09:24:56;;;;;;;71.80;25.95;;;;;;;;;;4983380;28;20045;-66
2022/04/24 09:27:33;;;;;;;70.95;26.10;;;;;;;;;;4983813;28;20039;-66
2022/04/24 09:30:09;;;;;;;74.57;25.58;;;;;;;;;;4991934;28;20041;-66
2022/04/24 09:32:57;;;;;;;67.88;26.08;;;;;;;;;;4985401;28;20062;-66
2022/04/24 09:35:26;;;;;;;72.53;25.50;;;;;;;;;;4983367;28;20026;-66
2022/04/24 09:37:52;;;;;;;67.28;25.02;;;;;;;;;;4978899;28;20035;-66
2022/04/24 09:40:19;;;;;;;61.03;24.38;;;;;;;;;;4973123;28;20038;-66
2022/04/24 09:42:54;;;;;;;70.78;23.73;;;;;;;;;;4971491;28;20059;-66
2022/04/24 09:45:25;;;;;;;77.63;25.67;;;;;;;;;;4983696;28;20034;-66
2022/04/24 09:47:58;;;;;;;78.78;25.83;;;;;;;;;;4971518;28;20038;-66
2022/04/24 09:50:29;;;;;;;68.22;24.80;;;;;;;;;;4987892;28;20391;-66
2022/04/24 09:52:56;;;;;;;63.40;24.00;;;;;;;;;;4979010;28;20114;-66
2022/04/24 09:55:22;;;;;;;67.00;25.25;;;;;;;;;;4972384;28;20029;-66
2022/04/24 09:57:49;;;;;;;60.53;24.38;;;;;;;;;;4983841;28;20133;-66
2022/04/24 10:00:15;;;;;;;74.95;25.58;;;;;;;;;;4976056;28;20038;-66
2022/04/24 10:02:42;;;;;;;70.25;25.60;;;;;;;;;;4989241;28;20562;-66
2022/04/24 10:05:09;;;;;;;80.70;25.02;;;;;;;;;;4975559;28;20577;-66
2022/04/24 10:07:35;;;;;;;73.47;25.60;;;;;;;;;;4969796;28;20404;-66
2022/04/24 10:10:02;;;;;;;75.95;25.80;;;;;;;;;;4972004;28;20472;-67
2022/04/24 10:12:28;;;;;;;77.70;26.15;;;;;;;;;;4970626;28;20062;-67
2022/04/24 10:14:58;;;;;;;68.53;24.55;;;;;;;;;;4971918;28;20054;-66
2022/04/24 10:17:43;;;;;;;71.13;23.73;;;;;;;;;;4971970;28;20469;-66
2022/04/24 10:20:18;;;;;;;85.22;25.13;;;;;;;;;;4974756;28;20457;-66
2022/04/24 10:22:50;;;;;;;69.30;25.33;;;;;;;;;;4971874;28;20049;-66
2022/04/24 10:25:17;;;;;;;74.90;24.53;;;;;;;;;;4987674;28;20026;-67
2022/04/24 10:27:44;;;;;;;55.15;21.48;;;;;;;;;;4989244;28;20044;-67
2022/04/24 10:30:24;;;;;;;48.75;19.48;;;;;;;;;;4977759;28;20512;-67
2022/04/24 10:33:12;;;;;;;53.20;19.77;;;;;;;;;;4987590;28;20558;-66
2022/04/24 10:35:48;;;;;;;55.72;20.08;;;;;;;;;;4989567;28;20099;-66
2022/04/24 10:38:15;;;;;;;52.85;18.95;;;;;;;;;;4981487;28;20055;-67
2022/04/24 10:40:41;;;;;;;40.92;18.38;;;;;;;;;;4970175;28;20026;-66
2022/04/24 10:43:07;;;;;;;41.35;19.30;;;;;;;;;;4972033;28;20285;-66
2022/04/24 10:45:44;;;;;;;48.97;20.15;;;;;;;;;;4970532;28;20019;-66
2022/04/24 10:48:17;;;;;;;44.33;18.77;;;;;;;;;;4985710;28;20083;-66
2022/04/24 10:50:50;;;;;;;39.42;19.30;;;;;;;;;;4982743;28;20392;-66
2022/04/24 10:53:17;;;;;;;44.33;19.45;;;;;;;;;;4988968;28;20025;-66
2022/04/24 10:55:43;;;;;;;54.28;21.17;;;;;;;;;;4988631;28;20030;-66
2022/04/24 10:58:10;;;;;;;52.25;20.15;;;;;;;;;;4989263;28;20058;-66
2022/04/24 11:00:37;;;;;;;53.70;20.85;;;;;;;;;;4989382;28;20026;-66
2022/04/24 11:03:07;;;;;;;54.45;22.55;;;;;;;;;;4989528;28;20056;-67
2022/04/24 11:05:36;;;;;;;65.82;24.83;;;;;;;;;;4989080;28;20022;-66
2022/04/24 11:08:03;;;;;;;70.68;24.77;;;;;;;;;;4988310;28;20034;-66
2022/04/24 11:10:30;;;;;;;75.28;26.60;;;;;;;;;;4989293;28;20057;-66
2022/04/24 11:12:56;;;;;;;83.40;30.33;;;;;;;;;;4987712;28;20078;-67
2022/04/24 11:15:22;;;;;;;80.75;29.02;;;;;;;;;;4988551;28;20472;-67
2022/04/24 11:17:48;;;;;;;66.57;25.85;;;;;;;;;;4977727;28;20130;-67
2022/04/24 11:20:15;;;;;;;78.15;28.10;;;;;;;;;;4983936;28;20156;-66
2022/04/24 11:22:46;;;;;;;75.47;28.30;;;;;;;;;;4987786;28;20030;-66
2022/04/24 11:25:16;;;;;;;93.18;28.67;;;;;;;;;;4986337;28;20027;-67
2022/04/24 11:27:44;;;;;;;81.38;26.63;;;;;;;;;;4987522;28;20476;-66
2022/04/24 11:30:25;;;;;;;84.70;27.83;;;;;;;;;;4987619;28;20021;-67
2022/04/24 11:32:57;;;;;;;82.78;27.67;;;;;;;;;;4988603;28;20022;-67
2022/04/24 11:35:24;;;;;;;71.25;28.50;;;;;;;;;;4986786;28;20031;-66
2022/04/24 11:37:51;;;;;;;72.60;28.58;;;;;;;;;;4987829;28;20427;-67
2022/04/24 11:40:17;;;;;;;81.35;27.88;;;;;;;;;;4988413;28;20057;-66
2022/04/24 11:42:43;;;;;;;71.68;26.95;;;;;;;;;;4988649;28;20050;-66
2022/04/24 11:50:50;;;;;;;69.57;26.10;;;;;;;;;;4985541;28;20030;-66
2022/04/24 11:53:17;;;;;;;75.72;29.85;;;;;;;;;;4987731;28;20050;-66
2022/04/24 11:56:02;;;;;;;75.93;28.58;;;;;;;;;;4986991;28;20026;-66
2022/04/24 11:58:33;;;;;;;76.45;28.10;;;;;;;;;;4987253;28;20058;-66
2022/04/24 12:01:04;;;;;;;73.95;26.33;;;;;;;;;;4987691;28;20033;-66
2022/04/24 12:03:30;;;;;;;75.32;28.40;;;;;;;;;;4985108;28;20031;-66
2022/04/24 12:05:58;;;;;;;66.63;28.23;;;;;;;;;;4988117;28;20018;-66
2022/04/24 12:08:25;;;;;;;64.28;26.17;;;;;;;;;;4987650;28;20077;-67
2022/04/24 12:10:51;;;;;;;75.20;27.95;;;;;;;;;;4987499;28;20422;-67
2022/04/24 12:13:22;;;;;;;64.22;30.30;;;;;;;;;;4988154;28;20038;-67
2022/04/24 12:15:51;;;;;;;66.10;26.98;;;;;;;;;;4987979;28;20117;-67
2022/04/24 12:18:21;;;;;;;84.72;29.38;;;;;;;;;;4985315;28;20033;-65
2022/04/24 12:20:49;;;;;;;68.35;25.90;;;;;;;;;;4978950;28;20608;-65
2022/04/24 12:23:16;;;;;;;63.83;26.40;;;;;;;;;;4979472;28;20014;-65
2022/04/24 12:25:47;;;;;;;76.60;27.63;;;;;;;;;;4981099;28;20030;-65
2022/04/24 12:28:13;;;;;;;63.92;28.45;;;;;;;;;;4979743;28;20039;-65
2022/04/24 12:30:39;;;;;;;62.58;26.23;;;;;;;;;;4980163;28;20495;-65
2022/04/24 12:33:06;;;;;;;71.10;28.33;;;;;;;;;;4978627;28;20019;-65
2022/04/24 12:35:36;;;;;;;63.78;27.65;;;;;;;;;;4980672;28;20022;-65
2022/04/24 12:38:13;;;;;;;59.00;26.55;;;;;;;;;;4980257;28;20403;-65
2022/04/24 12:40:39;;;;;;;74.55;28.35;;;;;;;;;;4977859;28;20125;-65
2022/04/24 12:43:05;;;;;;;64.32;25.95;;;;;;;;;;4980316;28;20455;-65
2022/04/24 12:45:35;;;;;;;66.22;28.05;;;;;;;;;;4979105;28;20026;-65
2022/04/24 12:48:01;;;;;;;61.30;27.17;;;;;;;;;;4979713;28;20026;-65
2022/04/24 12:50:27;;;;;;;62.53;24.75;;;;;;;;;;4975873;28;20112;-65
2022/04/24 12:52:53;;;;;;;69.35;25.48;;;;;;;;;;4977902;28;20031;-65
2022/04/24 12:55:19;;;;;;;66.82;25.40;;;;;;;;;;4980549;28;20018;-65
2022/04/24 12:57:45;;;;;;;69.13;25.75;;;;;;;;;;4978954;28;20055;-65
2022/04/24 13:00:11;;;;;;;66.97;25.33;;;;;;;;;;4978697;28;20030;-65
2022/04/24 13:02:38;;;;;;;61.10;24.55;;;;;;;;;;4979437;28;20023;-65
2022/04/24 13:05:04;;;;;;;57.55;24.50;;;;;;;;;;4979893;28;20031;-65
2022/04/24 13:07:30;;;;;;;57.58;24.27;;;;;;;;;;4979687;28;20396;-65
2022/04/24 13:09:58;;;;;;;60.78;23.02;;;;;;;;;;4978224;28;20026;-65
2022/04/24 13:12:24;;;;;;;59.30;23.75;;;;;;;;;;4979014;28;20096;-66
2022/04/24 13:14:52;;;;;;;64.82;22.40;;;;;;;;;;4978590;28;20029;-66
2022/04/24 13:20:03;;;;;;;68.97;22.77;;;;;;;;;;4982373;28;20041;-64
2022/04/24 13:22:29;;;;;;;67.93;23.63;;;;;;;;;;4978614;28;20034;-65
2022/04/24 13:24:55;;;;;;;58.40;22.75;;;;;;;;;;4978054;28;20033;-65
2022/04/24 13:27:21;;;;;;;57.45;21.92;;;;;;;;;;4974074;28;20026;-64
2022/04/24 13:29:47;;;;;;;65.53;21.73;;;;;;;;;;4986437;28;20031;-64
2022/04/24 13:32:14;;;;;;;58.72;22.70;;;;;;;;;;4971405;28;20047;-64
2022/04/24 13:34:40;;;;;;;48.60;21.42;;;;;;;;;;4970567;28;20027;-65
2022/04/24 13:39:51;;;;;;;57.08;22.65;;;;;;;;;;4977468;28;20392;-65
2022/04/24 13:42:19;;;;;;;51.28;20.60;;;;;;;;;;4982335;28;20022;-64
2022/04/24 13:44:45;;;;;;;62.25;24.90;;;;;;;;;;4976148;28;20085;-64
2022/04/24 13:47:12;;;;;;;52.58;22.50;;;;;;;;;;4980898;28;20031;-72
2022/04/24 13:49:40;;;;;;;53.08;21.92;;;;;;;;;;4977802;28;20484;-71
2022/04/24 13:52:06;;;;;;;44.92;20.83;;;;;;;;;;4987685;28;20019;-66
2022/04/24 13:54:32;;;;;;;50.88;19.98;;;;;;;;;;4986363;28;20034;-64
2022/04/24 13:56:59;;;;;;;49.10;20.27;;;;;;;;;;4975542;28;20043;-66
2022/04/24 13:59:25;;;;;;;49.53;19.70;;;;;;;;;;4991166;28;20022;-73
2022/04/24 14:01:51;;;;;;;46.22;19.45;;;;;;;;;;4984226;28;20498;-65
2022/04/24 14:04:18;;;;;;;37.03;16.45;;;;;;;;;;4979192;28;20035;-67
2022/04/24 14:06:44;;;;;;;40.95;17.80;;;;;;;;;;4975683;28;20031;-65
2022/04/24 14:09:11;;;;;;;34.92;15.85;;;;;;;;;;4981518;28;20026;-65
2022/04/24 14:11:37;;;;;;;41.50;15.65;;;;;;;;;;4976983;28;20369;-64
2022/04/24 14:14:04;;;;;;;43.25;16.65;;;;;;;;;;5007576;28;20088;-65
2022/04/24 14:16:30;;;;;;;42.70;16.77;;;;;;;;;;5026985;28;20396;-68
2022/04/24 14:18:56;;;;;;;38.60;15.55;;;;;;;;;;4989423;28;20026;-64
2022/04/24 14:21:22;;;;;;;41.35;16.67;;;;;;;;;;5022553;28;20082;-68
2022/04/24 14:23:48;;;;;;;38.10;16.80;;;;;;;;;;5000475;28;20034;-65
2022/04/24 14:26:14;;;;;;;39.05;14.88;;;;;;;;;;4987588;28;20037;-63